createdAt,value
2018-12-16T00:01:33.675Z,81.47
2018-12-16T00:04:02.720Z,81.96
2018-12-16T00:06:31.505Z,82.16
2018-12-16T00:09:00.200Z,82.39
2018-12-16T00:11:29.142Z,82.24
2018-12-16T00:13:57.858Z,82.21
2018-12-16T00:16:26.615Z,81.64
2018-12-16T00:18:55.363Z,81.67
2018-12-16T00:21:24.069Z,81.71
2018-12-16T00:23:52.839Z,82.10
2018-12-16T00:26:21.576Z,81.61
2018-12-16T00:28:50.290Z,81.67
2018-12-16T00:31:19.036Z,81.55
2018-12-16T00:33:47.765Z,81.44
2018-12-16T00:36:16.508Z,81.44
2018-12-16T00:38:45.290Z,81.39
2018-12-16T00:41:13.992Z,81.38
2018-12-16T00:43:42.688Z,81.63
2018-12-16T00:46:11.486Z,81.29
2018-12-16T00:48:40.248Z,81.56
2018-12-16T00:51:08.993Z,81.71
2018-12-16T00:53:37.647Z,80.70
2018-12-16T00:56:06.302Z,80.74
2018-12-16T00:58:35.092Z,81.09
2018-12-16T01:01:03.868Z,80.94
2018-12-16T01:03:32.800Z,81.16
2018-12-16T01:06:01.992Z,81.69
2018-12-16T01:08:31.543Z,81.69
2018-12-16T01:11:00.297Z,81.90
2018-12-16T01:13:29.148Z,82.09
2018-12-16T01:15:57.864Z,82.09
2018-12-16T01:18:26.628Z,81.50
2018-12-16T01:20:55.794Z,81.99
2018-12-16T01:23:24.477Z,81.67
2018-12-16T01:25:53.183Z,81.18
2018-12-16T01:28:21.926Z,81.00
2018-12-16T01:30:50.965Z,80.94
2018-12-16T01:33:19.628Z,80.99
2018-12-16T01:35:48.294Z,80.72
2018-12-16T01:38:17.022Z,80.64
2018-12-16T01:40:45.760Z,80.59
2018-12-16T01:43:14.520Z,80.34
2018-12-16T01:45:43.308Z,80.10
2018-12-16T01:48:12.046Z,79.70
2018-12-16T01:50:40.718Z,79.10
2018-12-16T01:53:09.410Z,79.04
2018-12-16T01:55:38.207Z,78.49
2018-12-16T01:58:06.914Z,78.99
2018-12-16T02:00:35.887Z,79.05
2018-12-16T02:03:05.070Z,78.78
2018-12-16T02:05:34.289Z,78.71
2018-12-16T02:08:03.070Z,78.58
2018-12-16T02:10:31.761Z,78.59
2018-12-16T02:13:00.522Z,78.45
2018-12-16T02:15:29.200Z,78.33
2018-12-16T02:17:57.996Z,78.30
2018-12-16T02:20:26.713Z,77.97
2018-12-16T02:22:57.059Z,77.96
2018-12-16T02:25:26.244Z,77.42
2018-12-16T02:27:55.041Z,77.29
2018-12-16T02:30:28.884Z,77.38
2018-12-16T02:32:58.328Z,77.85
2018-12-16T02:35:27.040Z,78.01
2018-12-16T02:37:55.673Z,77.61
2018-12-16T02:40:24.438Z,77.78
2018-12-16T02:42:53.129Z,77.76
2018-12-16T02:45:21.852Z,77.66
2018-12-16T02:47:50.570Z,78.26
2018-12-16T02:50:19.812Z,78.27
2018-12-16T02:52:48.543Z,78.07
2018-12-16T02:55:17.289Z,78.50
2018-12-16T02:57:45.976Z,78.52
2018-12-16T03:00:15.242Z,78.17
2018-12-16T03:02:43.897Z,78.37
2018-12-16T03:05:12.601Z,77.94
2018-12-16T03:07:42.170Z,77.30
2018-12-16T03:10:11.334Z,77.95
2018-12-16T03:12:40.175Z,78.38
2018-12-16T03:15:09.526Z,77.50
2018-12-16T03:17:38.403Z,77.32
2018-12-16T03:20:08.123Z,77.47
2018-12-16T03:22:36.964Z,78.02
2018-12-16T03:25:07.398Z,77.78
2018-12-16T03:27:39.289Z,78.08
2018-12-16T03:30:11.258Z,77.86
2018-12-16T03:32:40.054Z,77.28
2018-12-16T03:35:09.435Z,77.85
2018-12-16T03:37:38.285Z,78.27
2018-12-16T03:40:08.061Z,77.81
2018-12-16T03:42:36.841Z,77.80
2018-12-16T03:45:06.612Z,78.59
2018-12-16T03:47:35.326Z,79.24
2018-12-16T03:50:04.686Z,79.05
2018-12-16T03:52:33.472Z,78.92
2018-12-16T03:55:02.205Z,78.83
2018-12-16T03:57:31.479Z,78.27
2018-12-16T04:00:00.724Z,79.01
2018-12-16T04:02:29.449Z,78.32
2018-12-16T04:04:58.250Z,78.31
2018-12-16T04:07:27.074Z,77.98
2018-12-16T04:09:55.806Z,78.17
2018-12-16T04:12:24.479Z,78.28
2018-12-16T04:14:53.179Z,78.65
2018-12-16T04:17:21.882Z,79.02
2018-12-16T04:19:50.621Z,78.59
2018-12-16T04:22:19.381Z,78.55
2018-12-16T04:24:48.197Z,78.49
2018-12-16T04:27:17.053Z,78.66
2018-12-16T04:29:45.810Z,78.71
2018-12-16T04:32:14.589Z,78.30
2018-12-16T04:34:43.356Z,77.83
2018-12-16T04:37:12.072Z,77.51
2018-12-16T04:39:40.778Z,77.83
2018-12-16T04:42:09.645Z,77.98
2018-12-16T04:44:38.380Z,77.99
2018-12-16T04:47:07.173Z,78.70
2018-12-16T04:49:35.854Z,78.69
2018-12-16T04:52:04.618Z,78.66
2018-12-16T04:54:33.344Z,79.06
2018-12-16T04:57:02.091Z,78.54
2018-12-16T04:59:30.837Z,78.97
2018-12-16T05:01:59.609Z,79.16
2018-12-16T05:04:28.304Z,79.76
2018-12-16T05:06:57.054Z,79.55
2018-12-16T05:09:25.874Z,79.71
2018-12-16T05:11:54.664Z,79.45
2018-12-16T05:14:23.706Z,78.97
2018-12-16T05:16:52.468Z,79.27
2018-12-16T05:19:21.170Z,78.93
2018-12-16T05:21:49.899Z,79.24
2018-12-16T05:24:18.624Z,78.55
2018-12-16T05:26:47.363Z,78.14
2018-12-16T05:29:16.116Z,78.16
2018-12-16T05:31:44.903Z,78.17
2018-12-16T05:34:13.573Z,78.31
2018-12-16T05:36:42.450Z,78.48
2018-12-16T05:39:11.187Z,78.22
2018-12-16T05:41:39.896Z,78.44
2018-12-16T05:44:08.576Z,78.51
2018-12-16T05:46:37.267Z,78.75
2018-12-16T05:49:06.082Z,78.48
2018-12-16T05:51:34.800Z,78.43
2018-12-16T05:54:03.590Z,78.24
2018-12-16T05:56:32.326Z,78.62
2018-12-16T05:59:01.102Z,78.91
2018-12-16T06:01:29.778Z,78.41
2018-12-16T06:03:58.438Z,78.68
2018-12-16T06:06:27.202Z,78.23
2018-12-16T06:08:55.895Z,78.51
2018-12-16T06:11:24.641Z,77.98
2018-12-16T06:13:53.331Z,78.13
2018-12-16T06:16:21.977Z,78.05
2018-12-16T06:18:50.715Z,77.89
2018-12-16T06:21:19.435Z,77.43
2018-12-16T06:23:48.243Z,77.14
2018-12-16T06:26:16.980Z,77.72
2018-12-16T06:28:45.816Z,77.45
2018-12-16T06:31:14.640Z,77.51
2018-12-16T06:33:43.385Z,77.84
2018-12-16T06:36:12.503Z,78.13
2018-12-16T06:38:41.208Z,78.18
2018-12-16T06:41:09.910Z,78.83
2018-12-16T06:43:38.623Z,79.96
2018-12-16T06:46:07.365Z,79.92
2018-12-16T06:48:36.092Z,78.93
2018-12-16T06:51:04.843Z,77.63
2018-12-16T06:53:34.117Z,77.11
2018-12-16T06:56:06.598Z,76.98
2018-12-16T06:58:33.550Z,76.24
2018-12-16T07:01:02.419Z,75.89
2018-12-16T07:03:31.174Z,75.24
2018-12-16T07:06:00.018Z,73.52
2018-12-16T07:08:28.648Z,73.18
2018-12-16T07:10:57.617Z,72.88
2018-12-16T07:13:26.497Z,72.94
2018-12-16T07:15:55.234Z,72.49
2018-12-16T07:18:23.973Z,72.73
2018-12-16T07:20:52.726Z,73.98
2018-12-16T07:23:21.445Z,73.92
2018-12-16T07:25:50.453Z,74.02
2018-12-16T07:28:19.159Z,74.47
2018-12-16T07:30:48.237Z,74.37
2018-12-16T07:33:17.122Z,74.63
2018-12-16T07:35:46.189Z,75.45
2018-12-16T07:38:15.055Z,75.25
2018-12-16T07:40:43.806Z,75.66
2018-12-16T07:43:12.530Z,75.54
2018-12-16T07:45:41.203Z,77.15
2018-12-16T07:48:09.934Z,76.67
2018-12-16T07:50:38.733Z,76.20
2018-12-16T07:53:07.462Z,76.38
2018-12-16T07:55:36.182Z,77.36
2018-12-16T07:58:05.359Z,76.89
2018-12-16T08:00:34.341Z,78.02
2018-12-16T08:03:04.502Z,77.86
2018-12-16T08:05:33.277Z,77.06
2018-12-16T08:08:02.036Z,76.02
2018-12-16T08:10:30.812Z,75.51
2018-12-16T08:12:59.533Z,75.44
2018-12-16T08:15:28.277Z,75.21
2018-12-16T08:17:56.953Z,75.52
2018-12-16T08:20:25.642Z,76.04
2018-12-16T08:22:54.377Z,75.98
2018-12-16T08:25:23.165Z,76.20
2018-12-16T08:27:51.945Z,76.99
2018-12-16T08:30:20.945Z,76.61
2018-12-16T08:32:49.660Z,76.72
2018-12-16T08:35:18.417Z,77.47
2018-12-16T08:37:47.177Z,77.62
2018-12-16T08:40:16.456Z,77.36
2018-12-16T08:42:45.164Z,78.47
2018-12-16T08:45:13.963Z,78.42
2018-12-16T08:47:42.738Z,78.06
2018-12-16T08:50:11.533Z,78.29
2018-12-16T08:52:40.536Z,78.45
2018-12-16T08:55:09.248Z,78.56
2018-12-16T08:57:37.985Z,77.88
2018-12-16T09:00:14.732Z,78.53
2018-12-16T09:02:43.467Z,79.42
2018-12-16T09:05:13.391Z,78.47
2018-12-16T09:07:42.081Z,79.55
2018-12-16T09:10:11.476Z,79.85
2018-12-16T09:12:40.234Z,80.81
2018-12-16T09:15:09.463Z,82.05
2018-12-16T09:17:38.208Z,82.39
2018-12-16T09:20:07.995Z,83.34
2018-12-16T09:22:36.778Z,83.03
2018-12-16T09:25:07.273Z,83.49
2018-12-16T09:27:36.024Z,85.01
2018-12-16T09:30:14.018Z,85.00
2018-12-16T09:32:42.767Z,84.78
2018-12-16T09:35:11.463Z,85.21
2018-12-16T09:37:40.190Z,86.33
2018-12-16T09:40:09.643Z,85.82
2018-12-16T09:42:38.383Z,86.26
2018-12-16T09:45:08.114Z,87.35
2018-12-16T09:47:37.313Z,87.40
2018-12-16T09:50:06.955Z,88.19
2018-12-16T09:52:35.660Z,88.30
2018-12-16T09:55:05.318Z,88.20
2018-12-16T09:57:34.072Z,88.69
2018-12-16T10:00:12.021Z,88.47
2018-12-16T10:02:40.847Z,88.56
2018-12-16T10:05:12.594Z,88.25
2018-12-16T10:07:41.356Z,88.03
2018-12-16T10:10:11.452Z,87.83
2018-12-16T10:12:40.227Z,87.05
2018-12-16T10:15:10.050Z,87.27
2018-12-16T10:17:38.789Z,88.29
2018-12-16T10:20:10.020Z,87.88
2018-12-16T10:22:38.968Z,89.37
2018-12-16T10:25:08.207Z,89.43
2018-12-16T10:27:36.965Z,89.84
2018-12-16T10:30:13.872Z,90.03
2018-12-16T10:32:42.604Z,91.28
2018-12-16T10:35:11.344Z,91.13
2018-12-16T10:37:40.093Z,91.18
2018-12-16T10:40:08.933Z,90.18
2018-12-16T10:42:37.655Z,89.97
2018-12-16T10:45:08.540Z,90.23
2018-12-16T10:47:37.268Z,90.02
2018-12-16T10:50:07.644Z,90.40
2018-12-16T10:52:36.382Z,91.05
2018-12-16T10:55:06.104Z,91.68
2018-12-16T10:57:34.820Z,91.45
2018-12-16T11:00:16.699Z,91.45
2018-12-16T11:02:45.443Z,92.94
2018-12-16T11:05:15.326Z,94.08
2018-12-16T11:07:44.039Z,93.44
2018-12-16T11:10:12.761Z,94.02
2018-12-16T11:12:42.337Z,94.58
2018-12-16T11:15:11.170Z,95.91
2018-12-16T11:17:39.880Z,95.59
2018-12-16T11:20:09.234Z,95.58
2018-12-16T11:22:37.985Z,95.66
2018-12-16T11:25:09.026Z,96.40
2018-12-16T11:27:37.803Z,96.05
2018-12-16T11:30:15.276Z,97.15
2018-12-16T11:32:44.491Z,96.65
2018-12-16T11:35:13.243Z,95.86
2018-12-16T11:37:42.423Z,95.69
2018-12-16T11:40:11.258Z,96.00
2018-12-16T11:42:39.976Z,96.44
2018-12-16T11:45:09.213Z,96.93
2018-12-16T11:47:38.019Z,96.98
2018-12-16T11:50:07.342Z,97.34
2018-12-16T11:52:36.136Z,97.03
2018-12-16T11:55:12.540Z,97.20
2018-12-16T11:57:36.248Z,97.37
2018-12-16T12:00:13.657Z,96.92
2018-12-16T12:02:42.341Z,97.34
2018-12-16T12:05:11.102Z,97.09
2018-12-16T12:07:39.813Z,96.20
2018-12-16T12:10:09.348Z,96.35
2018-12-16T12:12:38.071Z,96.83
2018-12-16T12:15:07.251Z,96.28
2018-12-16T12:17:35.984Z,96.37
2018-12-16T12:20:05.501Z,96.11
2018-12-16T12:22:34.238Z,95.38
2018-12-16T12:25:03.006Z,95.95
2018-12-16T12:27:31.807Z,96.10
2018-12-16T12:30:00.566Z,95.85
2018-12-16T12:32:29.328Z,96.13
2018-12-16T12:34:58.020Z,95.57
2018-12-16T12:37:26.866Z,95.90
2018-12-16T12:39:55.660Z,95.75
2018-12-16T12:42:24.420Z,95.97
2018-12-16T12:44:53.186Z,95.71
2018-12-16T12:47:22.191Z,95.33
2018-12-16T12:49:50.886Z,96.64
2018-12-16T12:52:19.952Z,97.37
2018-12-16T12:54:50.633Z,96.56
2018-12-16T12:57:19.398Z,95.66
2018-12-16T12:59:48.268Z,95.62
2018-12-16T13:02:17.079Z,95.93
2018-12-16T13:04:45.927Z,96.52
2018-12-16T13:07:14.633Z,94.40
2018-12-16T13:09:43.409Z,95.08
2018-12-16T13:12:12.236Z,94.15
2018-12-16T13:14:41.371Z,94.12
2018-12-16T13:17:10.140Z,94.22
2018-12-16T13:19:38.862Z,94.16
2018-12-16T13:22:07.617Z,94.14
2018-12-16T13:24:40.753Z,93.72
2018-12-16T13:27:09.505Z,93.72
2018-12-16T13:29:38.230Z,93.36
2018-12-16T13:32:07.076Z,94.11
2018-12-16T13:34:35.842Z,93.74
2018-12-16T13:37:11.152Z,93.75
2018-12-16T13:39:39.873Z,93.74
2018-12-16T13:42:08.561Z,94.21
2018-12-16T13:44:37.272Z,93.31
2018-12-16T13:47:06.161Z,92.78
2018-12-16T13:49:34.945Z,91.89
2018-12-16T13:52:03.747Z,92.39
2018-12-16T13:54:32.596Z,92.83
2018-12-16T13:57:01.471Z,91.90
2018-12-16T13:59:30.261Z,91.06
2018-12-16T14:01:58.982Z,91.35
2018-12-16T14:04:27.744Z,91.66
2018-12-16T14:06:56.529Z,92.31
2018-12-16T14:09:25.298Z,92.22
2018-12-16T14:11:54.406Z,91.05
2018-12-16T14:14:23.147Z,90.98
2018-12-16T14:16:51.921Z,90.86
2018-12-16T14:19:20.707Z,91.41
2018-12-16T14:21:49.496Z,91.68
2018-12-16T14:24:18.243Z,90.91
2018-12-16T14:26:47.196Z,91.49
2018-12-16T14:29:16.005Z,91.29
2018-12-16T14:31:44.680Z,91.02
2018-12-16T14:34:13.427Z,91.29
2018-12-16T14:36:42.155Z,91.04
2018-12-16T14:39:10.848Z,91.22
2018-12-16T14:41:40.396Z,91.12
2018-12-16T14:44:09.206Z,91.52
2018-12-16T14:46:37.891Z,91.16
2018-12-16T14:49:06.605Z,90.77
2018-12-16T14:51:35.877Z,90.62
2018-12-16T14:54:05.039Z,90.32
2018-12-16T14:56:33.808Z,89.90
2018-12-16T14:59:03.178Z,90.41
2018-12-16T15:01:31.990Z,90.56
2018-12-16T15:04:01.051Z,90.37
2018-12-16T15:06:29.942Z,89.70
2018-12-16T15:08:58.618Z,89.94
2018-12-16T15:11:27.470Z,88.75
2018-12-16T15:13:56.224Z,88.66
2018-12-16T15:16:25.266Z,88.37
2018-12-16T15:18:54.005Z,88.07
2018-12-16T15:21:22.744Z,87.15
2018-12-16T15:23:51.573Z,87.31
2018-12-16T15:26:20.393Z,87.74
2018-12-16T15:28:49.203Z,86.53
2018-12-16T15:31:19.311Z,86.18
2018-12-16T15:33:48.493Z,85.75
2018-12-16T15:36:17.411Z,84.77
2018-12-16T15:38:46.161Z,85.25
2018-12-16T15:41:15.011Z,85.47
2018-12-16T15:43:43.905Z,84.42
2018-12-16T15:46:12.737Z,84.06
2018-12-16T15:48:42.307Z,84.60
2018-12-16T15:51:11.038Z,83.69
2018-12-16T15:53:40.217Z,84.33
2018-12-16T15:56:09.517Z,82.96
2018-12-16T15:58:40.731Z,83.61
2018-12-16T16:01:09.652Z,83.63
2018-12-16T16:03:38.761Z,83.76
2018-12-16T16:06:07.513Z,83.79
2018-12-16T16:08:37.483Z,83.26
2018-12-16T16:11:06.720Z,84.58
2018-12-16T16:13:35.592Z,84.36
2018-12-16T16:16:06.078Z,84.48
2018-12-16T16:18:35.135Z,85.24
2018-12-16T16:21:04.783Z,85.29
2018-12-16T16:23:33.597Z,85.41
2018-12-16T16:26:02.458Z,85.13
2018-12-16T16:28:31.338Z,85.13
2018-12-16T16:31:00.253Z,85.13
2018-12-16T16:33:29.754Z,85.26
2018-12-16T16:35:59.637Z,84.93
2018-12-16T16:38:28.613Z,85.28
2018-12-16T16:40:58.030Z,85.69
2018-12-16T16:43:26.941Z,85.65
2018-12-16T16:45:55.882Z,85.17
2018-12-16T16:48:24.847Z,84.99
2018-12-16T16:50:53.853Z,84.30
2018-12-16T16:53:24.256Z,84.96
2018-12-16T16:55:53.457Z,84.26
2018-12-16T16:58:22.396Z,84.02
2018-12-16T17:00:53.888Z,83.85
2018-12-16T17:03:23.735Z,83.48
2018-12-16T17:05:52.522Z,83.28
2018-12-16T17:08:22.249Z,83.01
2018-12-16T17:10:51.671Z,83.07
2018-12-16T17:13:20.419Z,82.39
2018-12-16T17:15:49.545Z,82.85
2018-12-16T17:18:19.537Z,82.56
2018-12-16T17:20:48.326Z,81.98
2018-12-16T17:23:17.205Z,81.27
2018-12-16T17:25:48.436Z,80.77
2018-12-16T17:28:18.552Z,80.34
2018-12-16T17:30:47.319Z,80.15
2018-12-16T17:33:16.108Z,80.22
2018-12-16T17:35:44.943Z,80.26
2018-12-16T17:38:13.712Z,81.02
2018-12-16T17:40:42.507Z,80.04
2018-12-16T17:43:11.234Z,80.72
2018-12-16T17:45:40.037Z,79.92
2018-12-16T17:48:08.840Z,80.20
2018-12-16T17:50:37.537Z,79.55
2018-12-16T17:53:06.937Z,80.91
2018-12-16T17:55:37.456Z,80.38
2018-12-16T17:58:06.791Z,80.48
2018-12-16T18:00:35.590Z,79.01
2018-12-16T18:03:04.411Z,79.69
2018-12-16T18:05:34.037Z,79.65
2018-12-16T18:08:04.305Z,79.67
2018-12-16T18:10:33.043Z,78.99
2018-12-16T18:13:02.200Z,79.42
2018-12-16T18:15:31.081Z,78.77
2018-12-16T18:17:59.795Z,78.30
2018-12-16T18:20:28.595Z,78.75
2018-12-16T18:22:57.454Z,79.26
2018-12-16T18:25:26.202Z,78.38
2018-12-16T18:27:55.086Z,77.58
2018-12-16T18:30:23.982Z,78.53
2018-12-16T18:32:53.253Z,77.92
2018-12-16T18:35:22.163Z,77.57
2018-12-16T18:37:51.360Z,77.44
2018-12-16T18:40:20.127Z,77.12
2018-12-16T18:42:48.912Z,77.00
2018-12-16T18:45:18.119Z,77.31
2018-12-16T18:47:47.376Z,77.91
2018-12-16T18:50:16.120Z,77.05
2018-12-16T18:52:44.930Z,76.72
2018-12-16T18:55:14.100Z,76.63
2018-12-16T18:57:42.852Z,77.16
2018-12-16T19:00:15.636Z,76.72
2018-12-16T19:02:44.521Z,76.32
2018-12-16T19:05:13.323Z,76.84
2018-12-16T19:07:43.165Z,77.22
2018-12-16T19:10:13.074Z,76.99
2018-12-16T19:12:41.811Z,76.44
2018-12-16T19:15:12.116Z,76.75
2018-12-16T19:17:40.897Z,75.97
2018-12-16T19:20:10.220Z,76.62
2018-12-16T19:22:38.987Z,76.57
2018-12-16T19:25:08.625Z,76.41
2018-12-16T19:27:37.399Z,77.23
2018-12-16T19:30:13.794Z,76.60
2018-12-16T19:32:42.573Z,76.38
2018-12-16T19:35:11.580Z,76.96
2018-12-16T19:37:40.522Z,76.73
2018-12-16T19:40:09.635Z,75.86
2018-12-16T19:42:38.798Z,76.04
2018-12-16T19:45:08.434Z,75.54
2018-12-16T19:47:37.203Z,74.97
2018-12-16T19:50:07.402Z,74.69
2018-12-16T19:52:36.152Z,75.16
2018-12-16T19:55:05.951Z,74.82
2018-12-16T19:57:34.763Z,75.55
2018-12-16T20:00:12.854Z,74.92
2018-12-16T20:02:41.604Z,75.22
2018-12-16T20:05:20.095Z,75.29
2018-12-16T20:07:49.678Z,75.05
2018-12-16T20:10:18.598Z,74.87
2018-12-16T20:12:47.335Z,75.29
2018-12-16T20:15:16.124Z,74.58
2018-12-16T20:17:44.857Z,75.08
2018-12-16T20:20:13.653Z,74.67
2018-12-16T20:22:42.436Z,74.97
2018-12-16T20:25:11.672Z,74.78
2018-12-16T20:27:40.442Z,75.08
2018-12-16T20:30:12.693Z,76.30
2018-12-16T20:32:41.519Z,74.63
2018-12-16T20:35:10.478Z,75.63
2018-12-16T20:37:39.655Z,75.96
2018-12-16T20:40:09.356Z,74.44
2018-12-16T20:42:38.083Z,74.85
2018-12-16T20:45:07.940Z,74.63
2018-12-16T20:47:36.669Z,74.62
2018-12-16T20:50:07.216Z,74.68
2018-12-16T20:52:35.911Z,74.95
2018-12-16T20:55:05.843Z,74.63
2018-12-16T20:57:34.621Z,73.86
2018-12-16T21:00:11.984Z,74.25
2018-12-16T21:02:40.912Z,73.53
2018-12-16T21:05:10.996Z,73.40
2018-12-16T21:07:39.780Z,74.22
2018-12-16T21:10:09.051Z,75.00
2018-12-16T21:12:43.062Z,73.78
2018-12-16T21:16:15.720Z,73.83
2018-12-16T21:18:44.994Z,72.97
2018-12-16T21:21:13.812Z,73.68
2018-12-16T21:23:42.567Z,73.34
2018-12-16T21:26:11.608Z,74.04
2018-12-16T21:28:40.355Z,74.39
2018-12-16T21:31:09.124Z,73.96
2018-12-16T21:33:37.924Z,73.47
2018-12-16T21:36:06.685Z,73.85
2018-12-16T21:38:35.432Z,73.70
2018-12-16T21:41:04.227Z,73.24
2018-12-16T21:43:34.821Z,73.07
2018-12-16T21:46:03.913Z,73.04
2018-12-16T21:48:32.686Z,73.09
2018-12-16T21:51:01.405Z,72.39
2018-12-16T21:53:30.162Z,72.43
2018-12-16T21:55:58.871Z,73.33
2018-12-16T21:58:27.628Z,73.22
2018-12-16T22:00:56.437Z,73.24
2018-12-16T22:03:25.227Z,73.00
2018-12-16T22:05:54.035Z,73.44
2018-12-16T22:08:22.752Z,72.68
2018-12-16T22:10:51.541Z,73.22
2018-12-16T22:13:20.331Z,73.78
2018-12-16T22:15:49.062Z,73.17
2018-12-16T22:18:17.824Z,72.60
2018-12-16T22:20:46.596Z,73.24
2018-12-16T22:23:15.353Z,73.59
2018-12-16T22:25:44.147Z,73.40
2018-12-16T22:28:12.938Z,73.74
2018-12-16T22:30:41.747Z,73.68
2018-12-16T22:33:10.480Z,73.29
2018-12-16T22:35:39.228Z,73.09
2018-12-16T22:38:07.927Z,73.18
2018-12-16T22:40:36.654Z,73.39
2018-12-16T22:43:05.503Z,72.92
2018-12-16T22:45:34.215Z,74.01
2018-12-16T22:48:02.922Z,73.95
2018-12-16T22:50:31.700Z,73.45
2018-12-16T22:53:00.406Z,74.07
2018-12-16T22:55:29.126Z,72.75
2018-12-16T22:57:57.990Z,73.87
2018-12-16T23:00:27.433Z,73.24
2018-12-16T23:02:56.214Z,73.32
2018-12-16T23:05:24.972Z,72.85
2018-12-16T23:07:53.650Z,73.18
2018-12-16T23:10:22.408Z,72.56
2018-12-16T23:12:51.232Z,72.58
2018-12-16T23:15:19.933Z,71.81
2018-12-16T23:17:48.707Z,71.96
2018-12-16T23:20:19.869Z,72.52
2018-12-16T23:22:48.942Z,71.90
2018-12-16T23:25:17.689Z,71.59
2018-12-16T23:27:46.372Z,71.54
2018-12-16T23:30:15.271Z,71.59
2018-12-16T23:32:44.002Z,70.93
2018-12-16T23:35:12.763Z,71.19
2018-12-16T23:37:41.474Z,71.04
2018-12-16T23:40:10.207Z,71.57
2018-12-16T23:42:39.022Z,70.76
2018-12-16T23:45:09.938Z,71.32
2018-12-16T23:47:38.634Z,71.26
2018-12-16T23:50:08.516Z,71.41
2018-12-16T23:52:37.306Z,71.64
2018-12-16T23:55:06.525Z,71.52
2018-12-16T23:57:35.313Z,71.34
